Cataract, WI (54620)

3:15 PM CST on December 10, 2016 (GMT -0600)
Cataract / New Lyme - Rural woods | | Change Station
Active Advisory: Winter Weather Advisory

Elev 879 ft 44.10 °N, 90.79 °W | Updated 1 minute ago

Overcast
Overcast
12.9 °F
Feels Like 13 °F
N
1.0
Wind Variable Wind from SSW

Today
High -- | Low -- °F
--% Chance of Precip.
Yesterday
High -- | Low -- °F
Precip. -- in
Pressure 30.38 in
Visibility 5.0 miles
Clouds Scattered Clouds 1700 ft
Mostly Cloudy 2200 ft
Overcast 2800 ft
Windchill 13 °F
Dew Point 5 °F
Humidity 69%
Rainfall 0.00 in
Snow Depth Not available.
7:27 AM 4:24 PM
Waxing Gibbous, 86% visible
METAR KCMY 102055Z AUTO 25003KT 5SM -SN SCT017 BKN022 OVC028 M08/M13 A3038 RMK AO2 T10851130
Pressure 30.38 in
Visibility 5.0 miles
Clouds Scattered Clouds 1700 ft
Mostly Cloudy 2200 ft
Overcast 2800 ft
Windchill 13 °F
Dew Point 5 °F
Humidity 69%
Rainfall 0.00 in
Snow Depth Not available.
7:27 AM 4:24 PM
Waxing Gibbous, 86% visible
METAR KCMY 102055Z AUTO 25003KT 5SM -SN SCT017 BKN022 OVC028 M08/M13 A3038 RMK AO2 T10851130

10-Day Weather Forecast

Almanac

Astronomy

Dec. 10, 2016 Rise Set
Actual Time
Civil Twilight
Nautical Twilight
Astronomical Twilight
Moon
Length of Visible Light
Length of Day
Tomorrow will be .
, % of the Moon is Illuminated

Today's Extremes

State Highs State Lows

Community

WunderPhotos

Upload Photos

1,956,664 photos uploaded!

WunderBlog® & News

Nearby

Air Quality

  Air Quality AQ Index Pollutant
Not available.

Snow Depth

Station Depth Elevation

Earthquake Activity

City Distance Mag. Time & Date
Minimum magnitude displayed is 2.5.

Coastal Water Temperatures

Place Temperature

Stations

Nearby Weather Stations

Station Location Temp. Windchill Dew Point Humidity Wind Precip. Elev Updated Type
                   

Watches & Warnings

Winter Weather Advisory
Issued: 1:55 PM CST Dec. 10, 2016 – National Weather Service

... Winter Weather Advisory remains in effect until 9 PM CST
Sunday...

* expect snow to move in this afternoon and increase in intensity
tonight... then diminish around 9 PM Sunday.

* The heaviest snowfall rates are expected between 6 am and noon
Sunday.

* Total snow accumulations of 6 to 8 inches are expected.

* Look for reduced visibilities at times.

* Plan on difficult driving conditions.

Precautionary/preparedness actions...

A Winter Weather Advisory for snow means periods of snow will
cause primarily travel difficulties. Be prepared for snow covered
roads and limited visibilities... and use caution while driving.
The latest Road conditions for the state you are calling from can
be obtained by calling 5 1 1.